sensor_id;sensor_type;location;lat;lon;timestamp;P1;durP1;ratioP1;P2;durP2;ratioP2
1613;SDS011;800;48.824;9.346;2022-12-18T00:01:50;48.40;;;25.60;;
1613;SDS011;800;48.824;9.346;2022-12-18T00:04:18;53.13;;;25.90;;
1613;SDS011;800;48.824;9.346;2022-12-18T00:06:47;52.20;;;26.50;;
1613;SDS011;800;48.824;9.346;2022-12-18T00:09:13;47.87;;;25.03;;
1613;SDS011;800;48.824;9.346;2022-12-18T00:11:38;48.33;;;26.17;;
1613;SDS011;800;48.824;9.346;2022-12-18T00:14:04;41.73;;;24.90;;
1613;SDS011;800;48.824;9.346;2022-12-18T00:16:29;47.67;;;27.67;;
1613;SDS011;800;48.824;9.346;2022-12-18T00:18:57;55.30;;;29.63;;
1613;SDS011;800;48.824;9.346;2022-12-18T00:21:24;53.37;;;26.77;;
1613;SDS011;800;48.824;9.346;2022-12-18T00:23:50;50.10;;;29.57;;
1613;SDS011;800;48.824;9.346;2022-12-18T00:26:19;49.83;;;25.53;;
1613;SDS011;800;48.824;9.346;2022-12-18T00:28:47;53.10;;;29.00;;
1613;SDS011;800;48.824;9.346;2022-12-18T00:31:21;54.47;;;27.50;;
1613;SDS011;800;48.824;9.346;2022-12-18T00:33:48;51.07;;;25.80;;
1613;SDS011;800;48.824;9.346;2022-12-18T00:36:15;48.07;;;26.13;;
1613;SDS011;800;48.824;9.346;2022-12-18T00:38:43;54.37;;;28.47;;
1613;SDS011;800;48.824;9.346;2022-12-18T00:41:10;50.73;;;26.40;;
1613;SDS011;800;48.824;9.346;2022-12-18T00:43:36;51.90;;;27.13;;
1613;SDS011;800;48.824;9.346;2022-12-18T00:46:02;47.17;;;26.47;;
1613;SDS011;800;48.824;9.346;2022-12-18T00:48:28;50.50;;;25.83;;
1613;SDS011;800;48.824;9.346;2022-12-18T00:50:54;44.60;;;27.10;;
1613;SDS011;800;48.824;9.346;2022-12-18T00:53:20;49.03;;;26.97;;
1613;SDS011;800;48.824;9.346;2022-12-18T00:55:46;55.00;;;26.80;;
1613;SDS011;800;48.824;9.346;2022-12-18T00:58:12;42.63;;;26.03;;
1613;SDS011;800;48.824;9.346;2022-12-18T01:00:39;45.50;;;24.73;;
1613;SDS011;800;48.824;9.346;2022-12-18T01:03:05;49.67;;;26.17;;
1613;SDS011;800;48.824;9.346;2022-12-18T01:05:31;48.00;;;27.10;;
1613;SDS011;800;48.824;9.346;2022-12-18T01:07:58;42.50;;;25.07;;
1613;SDS011;800;48.824;9.346;2022-12-18T01:10:24;48.20;;;25.43;;
1613;SDS011;800;48.824;9.346;2022-12-18T01:12:50;40.13;;;23.13;;
1613;SDS011;800;48.824;9.346;2022-12-18T01:15:16;50.47;;;24.03;;
1613;SDS011;800;48.824;9.346;2022-12-18T01:17:42;53.27;;;24.90;;
1613;SDS011;800;48.824;9.346;2022-12-18T01:20:09;38.90;;;23.70;;
1613;SDS011;800;48.824;9.346;2022-12-18T01:22:36;38.67;;;23.43;;
1613;SDS011;800;48.824;9.346;2022-12-18T01:25:02;43.10;;;21.60;;
1613;SDS011;800;48.824;9.346;2022-12-18T01:27:29;44.33;;;23.97;;
1613;SDS011;800;48.824;9.346;2022-12-18T01:29:55;57.40;;;25.50;;
1613;SDS011;800;48.824;9.346;2022-12-18T01:32:20;46.10;;;23.53;;
1613;SDS011;800;48.824;9.346;2022-12-18T01:34:46;45.13;;;25.17;;
1613;SDS011;800;48.824;9.346;2022-12-18T01:37:12;45.40;;;23.83;;
1613;SDS011;800;48.824;9.346;2022-12-18T01:39:38;47.37;;;24.03;;
1613;SDS011;800;48.824;9.346;2022-12-18T01:42:05;40.67;;;23.30;;
1613;SDS011;800;48.824;9.346;2022-12-18T01:49:55;40.47;;;22.70;;
1613;SDS011;800;48.824;9.346;2022-12-18T01:52:22;39.03;;;22.23;;
1613;SDS011;800;48.824;9.346;2022-12-18T01:54:50;40.87;;;23.80;;
1613;SDS011;800;48.824;9.346;2022-12-18T01:57:18;49.17;;;24.17;;
1613;SDS011;800;48.824;9.346;2022-12-18T01:59:45;37.97;;;20.60;;
1613;SDS011;800;48.824;9.346;2022-12-18T02:02:15;44.73;;;24.17;;
1613;SDS011;800;48.824;9.346;2022-12-18T02:04:41;40.87;;;24.60;;
1613;SDS011;800;48.824;9.346;2022-12-18T02:07:10;47.23;;;24.47;;
1613;SDS011;800;48.824;9.346;2022-12-18T02:09:53;46.00;;;23.70;;
1613;SDS011;800;48.824;9.346;2022-12-18T02:12:25;41.93;;;21.10;;
1613;SDS011;800;48.824;9.346;2022-12-18T02:15:01;46.20;;;23.00;;
1613;SDS011;800;48.824;9.346;2022-12-18T02:17:37;40.57;;;20.80;;
1613;SDS011;800;48.824;9.346;2022-12-18T02:23:06;43.10;;;20.30;;
1613;SDS011;800;48.824;9.346;2022-12-18T02:25:59;44.63;;;21.17;;
1613;SDS011;800;48.824;9.346;2022-12-18T02:28:32;34.40;;;20.97;;
1613;SDS011;800;48.824;9.346;2022-12-18T02:31:02;45.57;;;21.83;;
1613;SDS011;800;48.824;9.346;2022-12-18T02:33:32;48.37;;;22.27;;
1613;SDS011;800;48.824;9.346;2022-12-18T02:35:59;41.40;;;21.07;;
1613;SDS011;800;48.824;9.346;2022-12-18T02:38:26;41.30;;;21.77;;
1613;SDS011;800;48.824;9.346;2022-12-18T02:40:54;38.50;;;21.60;;
1613;SDS011;800;48.824;9.346;2022-12-18T02:43:20;34.10;;;20.07;;
1613;SDS011;800;48.824;9.346;2022-12-18T02:45:49;37.30;;;21.87;;
1613;SDS011;800;48.824;9.346;2022-12-18T02:48:18;37.80;;;19.43;;
1613;SDS011;800;48.824;9.346;2022-12-18T02:50:52;37.13;;;22.10;;
1613;SDS011;800;48.824;9.346;2022-12-18T02:53:31;39.17;;;19.77;;
1613;SDS011;800;48.824;9.346;2022-12-18T02:56:03;41.33;;;21.27;;
1613;SDS011;800;48.824;9.346;2022-12-18T02:58:46;45.10;;;23.83;;
1613;SDS011;800;48.824;9.346;2022-12-18T03:04:16;53.93;;;25.83;;
1613;SDS011;800;48.824;9.346;2022-12-18T03:06:54;44.63;;;22.20;;
1613;SDS011;800;48.824;9.346;2022-12-18T03:09:42;42.40;;;23.30;;
1613;SDS011;800;48.824;9.346;2022-12-18T03:14:55;32.43;;;17.20;;
1613;SDS011;800;48.824;9.346;2022-12-18T03:17:37;40.33;;;18.90;;
1613;SDS011;800;48.824;9.346;2022-12-18T03:20:14;32.20;;;20.30;;
1613;SDS011;800;48.824;9.346;2022-12-18T03:22:43;31.57;;;19.47;;
1613;SDS011;800;48.824;9.346;2022-12-18T03:25:14;39.73;;;19.80;;
1613;SDS011;800;48.824;9.346;2022-12-18T03:27:47;38.60;;;19.50;;
1613;SDS011;800;48.824;9.346;2022-12-18T03:30:16;31.83;;;18.03;;
1613;SDS011;800;48.824;9.346;2022-12-18T03:35:35;41.17;;;19.70;;
1613;SDS011;800;48.824;9.346;2022-12-18T03:38:03;37.20;;;18.20;;
1613;SDS011;800;48.824;9.346;2022-12-18T03:43:18;37.67;;;19.07;;
1613;SDS011;800;48.824;9.346;2022-12-18T03:45:59;33.67;;;17.80;;
1613;SDS011;800;48.824;9.346;2022-12-18T03:48:36;38.80;;;20.07;;
1613;SDS011;800;48.824;9.346;2022-12-18T03:51:10;31.00;;;18.47;;
1613;SDS011;800;48.824;9.346;2022-12-18T03:53:59;30.07;;;19.10;;
1613;SDS011;800;48.824;9.346;2022-12-18T03:56:29;29.90;;;16.83;;
1613;SDS011;800;48.824;9.346;2022-12-18T03:58:56;32.67;;;17.90;;
1613;SDS011;800;48.824;9.346;2022-12-18T04:01:30;35.10;;;16.70;;
1613;SDS011;800;48.824;9.346;2022-12-18T04:03:59;36.03;;;18.70;;
1613;SDS011;800;48.824;9.346;2022-12-18T04:06:26;31.73;;;16.30;;
1613;SDS011;800;48.824;9.346;2022-12-18T04:08:52;33.57;;;18.67;;
1613;SDS011;800;48.824;9.346;2022-12-18T04:11:18;31.70;;;18.90;;
1613;SDS011;800;48.824;9.346;2022-12-18T04:13:44;28.07;;;16.83;;
1613;SDS011;800;48.824;9.346;2022-12-18T04:16:10;27.43;;;16.83;;
1613;SDS011;800;48.824;9.346;2022-12-18T04:18:35;31.27;;;17.20;;
1613;SDS011;800;48.824;9.346;2022-12-18T04:21:01;35.40;;;18.23;;
1613;SDS011;800;48.824;9.346;2022-12-18T04:23:27;27.07;;;16.90;;
1613;SDS011;800;48.824;9.346;2022-12-18T04:25:53;29.13;;;16.80;;
1613;SDS011;800;48.824;9.346;2022-12-18T04:28:19;29.83;;;16.40;;
1613;SDS011;800;48.824;9.346;2022-12-18T04:30:45;29.20;;;17.50;;
1613;SDS011;800;48.824;9.346;2022-12-18T04:33:11;32.73;;;17.23;;
1613;SDS011;800;48.824;9.346;2022-12-18T04:35:38;32.67;;;16.67;;
1613;SDS011;800;48.824;9.346;2022-12-18T04:38:05;35.47;;;17.27;;
1613;SDS011;800;48.824;9.346;2022-12-18T04:40:33;31.47;;;16.37;;
1613;SDS011;800;48.824;9.346;2022-12-18T04:43:00;34.00;;;15.60;;
1613;SDS011;800;48.824;9.346;2022-12-18T04:45:26;30.13;;;16.07;;
1613;SDS011;800;48.824;9.346;2022-12-18T04:47:52;23.67;;;15.40;;
1613;SDS011;800;48.824;9.346;2022-12-18T04:50:17;30.83;;;16.67;;
1613;SDS011;800;48.824;9.346;2022-12-18T04:52:43;27.40;;;15.97;;
1613;SDS011;800;48.824;9.346;2022-12-18T04:55:08;31.47;;;16.10;;
1613;SDS011;800;48.824;9.346;2022-12-18T04:57:34;29.93;;;17.53;;
1613;SDS011;800;48.824;9.346;2022-12-18T04:59:59;30.37;;;16.47;;
1613;SDS011;800;48.824;9.346;2022-12-18T05:02:25;28.53;;;16.00;;
1613;SDS011;800;48.824;9.346;2022-12-18T05:04:51;26.27;;;17.23;;
1613;SDS011;800;48.824;9.346;2022-12-18T05:07:16;27.53;;;16.40;;
1613;SDS011;800;48.824;9.346;2022-12-18T05:09:42;27.30;;;15.10;;
1613;SDS011;800;48.824;9.346;2022-12-18T05:12:07;30.83;;;15.17;;
1613;SDS011;800;48.824;9.346;2022-12-18T05:14:33;24.13;;;14.40;;
1613;SDS011;800;48.824;9.346;2022-12-18T05:16:58;27.27;;;13.30;;
1613;SDS011;800;48.824;9.346;2022-12-18T05:19:24;26.60;;;14.47;;
1613;SDS011;800;48.824;9.346;2022-12-18T05:21:50;27.73;;;16.07;;
1613;SDS011;800;48.824;9.346;2022-12-18T05:24:15;33.33;;;17.07;;
1613;SDS011;800;48.824;9.346;2022-12-18T05:26:41;27.47;;;14.87;;
1613;SDS011;800;48.824;9.346;2022-12-18T05:29:06;28.80;;;14.97;;
1613;SDS011;800;48.824;9.346;2022-12-18T05:31:32;30.33;;;15.57;;
1613;SDS011;800;48.824;9.346;2022-12-18T05:33:58;26.53;;;15.90;;
1613;SDS011;800;48.824;9.346;2022-12-18T05:36:23;34.17;;;17.40;;
1613;SDS011;800;48.824;9.346;2022-12-18T05:38:49;32.43;;;16.40;;
1613;SDS011;800;48.824;9.346;2022-12-18T05:41:15;25.73;;;15.07;;
1613;SDS011;800;48.824;9.346;2022-12-18T05:43:40;28.90;;;15.67;;
1613;SDS011;800;48.824;9.346;2022-12-18T05:46:13;28.90;;;15.67;;
1613;SDS011;800;48.824;9.346;2022-12-18T05:48:40;40.23;;;16.53;;
1613;SDS011;800;48.824;9.346;2022-12-18T05:51:07;28.17;;;15.40;;
1613;SDS011;800;48.824;9.346;2022-12-18T05:53:36;28.30;;;15.87;;
1613;SDS011;800;48.824;9.346;2022-12-18T05:56:03;28.30;;;16.07;;
1613;SDS011;800;48.824;9.346;2022-12-18T05:58:30;31.87;;;14.53;;
1613;SDS011;800;48.824;9.346;2022-12-18T06:00:57;30.10;;;15.30;;
1613;SDS011;800;48.824;9.346;2022-12-18T06:03:23;27.50;;;15.23;;
1613;SDS011;800;48.824;9.346;2022-12-18T06:05:49;29.80;;;16.90;;
1613;SDS011;800;48.824;9.346;2022-12-18T06:08:14;32.00;;;17.37;;
1613;SDS011;800;48.824;9.346;2022-12-18T06:10:40;31.47;;;18.50;;
1613;SDS011;800;48.824;9.346;2022-12-18T06:13:06;32.57;;;16.87;;
1613;SDS011;800;48.824;9.346;2022-12-18T06:15:35;32.07;;;15.53;;
1613;SDS011;800;48.824;9.346;2022-12-18T06:18:02;28.37;;;16.20;;
1613;SDS011;800;48.824;9.346;2022-12-18T06:20:28;30.13;;;16.07;;
1613;SDS011;800;48.824;9.346;2022-12-18T06:22:53;29.67;;;16.50;;
1613;SDS011;800;48.824;9.346;2022-12-18T06:25:19;36.27;;;15.97;;
1613;SDS011;800;48.824;9.346;2022-12-18T06:27:46;30.10;;;15.30;;
1613;SDS011;800;48.824;9.346;2022-12-18T06:30:12;32.87;;;16.87;;
1613;SDS011;800;48.824;9.346;2022-12-18T06:32:38;32.57;;;16.07;;
1613;SDS011;800;48.824;9.346;2022-12-18T06:35:04;31.17;;;16.00;;
1613;SDS011;800;48.824;9.346;2022-12-18T06:37:30;31.77;;;15.43;;
1613;SDS011;800;48.824;9.346;2022-12-18T06:39:56;27.53;;;15.17;;
1613;SDS011;800;48.824;9.346;2022-12-18T06:42:22;30.37;;;14.73;;
1613;SDS011;800;48.824;9.346;2022-12-18T06:44:48;29.10;;;14.93;;
1613;SDS011;800;48.824;9.346;2022-12-18T06:47:13;30.73;;;15.10;;
1613;SDS011;800;48.824;9.346;2022-12-18T06:49:39;28.53;;;15.13;;
1613;SDS011;800;48.824;9.346;2022-12-18T06:52:05;35.83;;;17.17;;
1613;SDS011;800;48.824;9.346;2022-12-18T06:54:30;34.47;;;15.47;;
1613;SDS011;800;48.824;9.346;2022-12-18T06:56:56;32.90;;;17.30;;
1613;SDS011;800;48.824;9.346;2022-12-18T06:59:24;24.63;;;13.07;;
1613;SDS011;800;48.824;9.346;2022-12-18T07:01:50;31.30;;;15.53;;
1613;SDS011;800;48.824;9.346;2022-12-18T07:04:16;28.07;;;14.73;;
1613;SDS011;800;48.824;9.346;2022-12-18T07:06:41;29.13;;;15.00;;
1613;SDS011;800;48.824;9.346;2022-12-18T07:09:07;31.67;;;15.23;;
1613;SDS011;800;48.824;9.346;2022-12-18T07:11:33;32.80;;;16.77;;
1613;SDS011;800;48.824;9.346;2022-12-18T07:13:58;31.63;;;14.80;;
1613;SDS011;800;48.824;9.346;2022-12-18T07:16:24;30.40;;;15.57;;
1613;SDS011;800;48.824;9.346;2022-12-18T07:18:50;31.97;;;15.43;;
1613;SDS011;800;48.824;9.346;2022-12-18T07:21:17;30.73;;;16.40;;
1613;SDS011;800;48.824;9.346;2022-12-18T07:23:44;31.37;;;15.90;;
1613;SDS011;800;48.824;9.346;2022-12-18T07:26:12;28.30;;;15.77;;
1613;SDS011;800;48.824;9.346;2022-12-18T07:28:39;32.30;;;15.37;;
1613;SDS011;800;48.824;9.346;2022-12-18T07:31:06;29.97;;;16.70;;
1613;SDS011;800;48.824;9.346;2022-12-18T07:33:33;34.97;;;17.10;;
1613;SDS011;800;48.824;9.346;2022-12-18T07:35:59;32.10;;;16.97;;
1613;SDS011;800;48.824;9.346;2022-12-18T07:38:26;30.90;;;16.10;;
1613;SDS011;800;48.824;9.346;2022-12-18T07:40:51;34.00;;;16.70;;
1613;SDS011;800;48.824;9.346;2022-12-18T07:43:17;34.80;;;18.50;;
1613;SDS011;800;48.824;9.346;2022-12-18T07:45:42;33.50;;;17.87;;
1613;SDS011;800;48.824;9.346;2022-12-18T07:48:08;28.13;;;16.03;;
1613;SDS011;800;48.824;9.346;2022-12-18T07:50:34;35.30;;;18.53;;
1613;SDS011;800;48.824;9.346;2022-12-18T07:53:00;36.90;;;19.13;;
1613;SDS011;800;48.824;9.346;2022-12-18T07:55:28;36.73;;;19.07;;
1613;SDS011;800;48.824;9.346;2022-12-18T07:57:55;32.17;;;17.67;;
1613;SDS011;800;48.824;9.346;2022-12-18T08:00:20;36.60;;;17.67;;
1613;SDS011;800;48.824;9.346;2022-12-18T08:02:46;41.63;;;20.00;;
1613;SDS011;800;48.824;9.346;2022-12-18T08:05:11;36.30;;;19.77;;
1613;SDS011;800;48.824;9.346;2022-12-18T08:07:38;32.00;;;16.93;;
1613;SDS011;800;48.824;9.346;2022-12-18T08:10:04;30.67;;;18.00;;
1613;SDS011;800;48.824;9.346;2022-12-18T08:12:30;34.87;;;17.03;;
1613;SDS011;800;48.824;9.346;2022-12-18T08:14:55;31.53;;;16.87;;
1613;SDS011;800;48.824;9.346;2022-12-18T08:17:21;34.80;;;20.87;;
1613;SDS011;800;48.824;9.346;2022-12-18T08:19:47;39.70;;;20.93;;
1613;SDS011;800;48.824;9.346;2022-12-18T08:22:12;31.50;;;17.67;;
1613;SDS011;800;48.824;9.346;2022-12-18T08:24:38;33.07;;;18.33;;
1613;SDS011;800;48.824;9.346;2022-12-18T08:27:03;36.50;;;18.63;;
1613;SDS011;800;48.824;9.346;2022-12-18T08:29:29;32.27;;;17.63;;
1613;SDS011;800;48.824;9.346;2022-12-18T08:31:55;36.10;;;18.47;;
1613;SDS011;800;48.824;9.346;2022-12-18T08:34:21;34.90;;;19.00;;
1613;SDS011;800;48.824;9.346;2022-12-18T08:36:46;35.10;;;17.50;;
1613;SDS011;800;48.824;9.346;2022-12-18T08:39:12;43.20;;;19.27;;
1613;SDS011;800;48.824;9.346;2022-12-18T08:41:37;36.90;;;17.33;;
1613;SDS011;800;48.824;9.346;2022-12-18T08:44:03;37.63;;;19.43;;
1613;SDS011;800;48.824;9.346;2022-12-18T08:46:47;47.43;;;19.17;;
1613;SDS011;800;48.824;9.346;2022-12-18T08:49:12;39.23;;;20.00;;
1613;SDS011;800;48.824;9.346;2022-12-18T08:51:38;42.67;;;22.57;;
1613;SDS011;800;48.824;9.346;2022-12-18T08:54:04;36.30;;;20.90;;
1613;SDS011;800;48.824;9.346;2022-12-18T08:56:31;35.73;;;20.30;;
1613;SDS011;800;48.824;9.346;2022-12-18T08:58:57;37.50;;;19.33;;
1613;SDS011;800;48.824;9.346;2022-12-18T09:01:23;46.27;;;22.20;;
1613;SDS011;800;48.824;9.346;2022-12-18T09:03:49;41.40;;;22.27;;
1613;SDS011;800;48.824;9.346;2022-12-18T09:06:19;47.30;;;21.97;;
1613;SDS011;800;48.824;9.346;2022-12-18T09:08:46;48.80;;;21.90;;
1613;SDS011;800;48.824;9.346;2022-12-18T09:11:15;45.13;;;22.87;;
1613;SDS011;800;48.824;9.346;2022-12-18T09:13:49;39.33;;;21.70;;
1613;SDS011;800;48.824;9.346;2022-12-18T09:16:15;42.27;;;21.63;;
1613;SDS011;800;48.824;9.346;2022-12-18T09:18:40;45.87;;;20.50;;
1613;SDS011;800;48.824;9.346;2022-12-18T09:21:13;39.20;;;22.37;;
1613;SDS011;800;48.824;9.346;2022-12-18T09:23:43;41.97;;;22.17;;
1613;SDS011;800;48.824;9.346;2022-12-18T09:26:13;37.50;;;20.83;;
1613;SDS011;800;48.824;9.346;2022-12-18T09:28:39;46.40;;;24.17;;
1613;SDS011;800;48.824;9.346;2022-12-18T09:31:06;37.97;;;21.13;;
1613;SDS011;800;48.824;9.346;2022-12-18T09:33:32;42.23;;;22.87;;
1613;SDS011;800;48.824;9.346;2022-12-18T09:36:00;41.40;;;23.07;;
1613;SDS011;800;48.824;9.346;2022-12-18T09:38:27;42.17;;;23.97;;
1613;SDS011;800;48.824;9.346;2022-12-18T09:40:53;40.03;;;23.17;;
1613;SDS011;800;48.824;9.346;2022-12-18T09:43:41;37.97;;;23.10;;
1613;SDS011;800;48.824;9.346;2022-12-18T09:46:15;41.87;;;23.23;;
1613;SDS011;800;48.824;9.346;2022-12-18T09:48:45;45.33;;;22.30;;
1613;SDS011;800;48.824;9.346;2022-12-18T09:51:16;46.03;;;23.40;;
1613;SDS011;800;48.824;9.346;2022-12-18T09:53:50;44.27;;;25.73;;
1613;SDS011;800;48.824;9.346;2022-12-18T09:56:20;43.10;;;23.63;;
1613;SDS011;800;48.824;9.346;2022-12-18T09:58:57;42.50;;;21.17;;
1613;SDS011;800;48.824;9.346;2022-12-18T10:01:24;39.47;;;22.97;;
1613;SDS011;800;48.824;9.346;2022-12-18T10:03:52;37.53;;;21.30;;
1613;SDS011;800;48.824;9.346;2022-12-18T10:16:47;38.47;;;21.73;;
1613;SDS011;800;48.824;9.346;2022-12-18T10:19:41;37.27;;;19.77;;
1613;SDS011;800;48.824;9.346;2022-12-18T10:24:53;36.13;;;19.30;;
1613;SDS011;800;48.824;9.346;2022-12-18T10:27:26;34.70;;;16.90;;
1613;SDS011;800;48.824;9.346;2022-12-18T10:29:52;37.03;;;17.10;;
1613;SDS011;800;48.824;9.346;2022-12-18T10:32:20;33.57;;;17.90;;
1613;SDS011;800;48.824;9.346;2022-12-18T10:34:48;37.07;;;18.63;;
1613;SDS011;800;48.824;9.346;2022-12-18T10:37:19;32.30;;;16.90;;
1613;SDS011;800;48.824;9.346;2022-12-18T10:40:04;31.10;;;18.70;;
1613;SDS011;800;48.824;9.346;2022-12-18T10:42:40;33.87;;;17.23;;
1613;SDS011;800;48.824;9.346;2022-12-18T10:45:11;34.40;;;18.10;;
1613;SDS011;800;48.824;9.346;2022-12-18T10:47:46;30.93;;;16.70;;
1613;SDS011;800;48.824;9.346;2022-12-18T10:50:20;32.10;;;18.03;;
1613;SDS011;800;48.824;9.346;2022-12-18T10:52:54;35.50;;;18.43;;
1613;SDS011;800;48.824;9.346;2022-12-18T10:55:26;32.10;;;18.13;;
1613;SDS011;800;48.824;9.346;2022-12-18T10:57:56;34.10;;;18.10;;
1613;SDS011;800;48.824;9.346;2022-12-18T11:03:45;32.43;;;16.33;;
1613;SDS011;800;48.824;9.346;2022-12-18T11:06:21;32.17;;;17.43;;
1613;SDS011;800;48.824;9.346;2022-12-18T11:11:26;32.93;;;17.07;;
1613;SDS011;800;48.824;9.346;2022-12-18T11:14:04;32.07;;;18.40;;
1613;SDS011;800;48.824;9.346;2022-12-18T11:16:33;32.83;;;18.03;;
1613;SDS011;800;48.824;9.346;2022-12-18T11:19:13;30.90;;;17.33;;
1613;SDS011;800;48.824;9.346;2022-12-18T11:21:49;32.60;;;17.67;;
1613;SDS011;800;48.824;9.346;2022-12-18T11:24:23;33.53;;;18.20;;
1613;SDS011;800;48.824;9.346;2022-12-18T11:27:01;30.20;;;15.93;;
1613;SDS011;800;48.824;9.346;2022-12-18T11:29:33;36.03;;;17.97;;
1613;SDS011;800;48.824;9.346;2022-12-18T11:35:19;33.40;;;17.73;;
1613;SDS011;800;48.824;9.346;2022-12-18T11:38:06;34.40;;;17.30;;
1613;SDS011;800;48.824;9.346;2022-12-18T11:40:36;35.17;;;18.07;;
1613;SDS011;800;48.824;9.346;2022-12-18T11:43:23;34.90;;;16.80;;
1613;SDS011;800;48.824;9.346;2022-12-18T11:46:01;33.97;;;16.67;;
1613;SDS011;800;48.824;9.346;2022-12-18T11:48:36;33.40;;;16.73;;
1613;SDS011;800;48.824;9.346;2022-12-18T11:51:09;32.00;;;17.90;;
1613;SDS011;800;48.824;9.346;2022-12-18T11:53:42;32.93;;;17.10;;
1613;SDS011;800;48.824;9.346;2022-12-18T12:09:18;34.97;;;14.80;;
1613;SDS011;800;48.824;9.346;2022-12-18T12:17:55;30.47;;;15.90;;
1613;SDS011;800;48.824;9.346;2022-12-18T12:25:37;32.10;;;16.50;;
1613;SDS011;800;48.824;9.346;2022-12-18T12:39:34;29.07;;;15.63;;
1613;SDS011;800;48.824;9.346;2022-12-18T12:42:08;29.43;;;15.97;;
1613;SDS011;800;48.824;9.346;2022-12-18T12:45:03;28.73;;;15.40;;
1613;SDS011;800;48.824;9.346;2022-12-18T12:47:36;33.67;;;16.30;;
1613;SDS011;800;48.824;9.346;2022-12-18T12:50:06;34.63;;;17.67;;
1613;SDS011;800;48.824;9.346;2022-12-18T12:52:42;29.63;;;17.80;;
1613;SDS011;800;48.824;9.346;2022-12-18T12:55:18;30.77;;;16.27;;
1613;SDS011;800;48.824;9.346;2022-12-18T13:00:19;33.40;;;17.40;;
1613;SDS011;800;48.824;9.346;2022-12-18T13:05:58;31.50;;;15.50;;
1613;SDS011;800;48.824;9.346;2022-12-18T13:08:28;33.03;;;18.17;;
1613;SDS011;800;48.824;9.346;2022-12-18T13:10:59;29.47;;;16.30;;
1613;SDS011;800;48.824;9.346;2022-12-18T13:13:51;34.07;;;17.40;;
1613;SDS011;800;48.824;9.346;2022-12-18T13:16:19;31.23;;;16.53;;
1613;SDS011;800;48.824;9.346;2022-12-18T13:18:51;29.17;;;16.83;;
1613;SDS011;800;48.824;9.346;2022-12-18T13:21:27;33.17;;;16.70;;
1613;SDS011;800;48.824;9.346;2022-12-18T13:23:54;31.33;;;17.27;;
1613;SDS011;800;48.824;9.346;2022-12-18T13:28:56;28.20;;;15.37;;
1613;SDS011;800;48.824;9.346;2022-12-18T13:36:48;31.13;;;17.90;;
1613;SDS011;800;48.824;9.346;2022-12-18T13:41:43;31.70;;;16.90;;
1613;SDS011;800;48.824;9.346;2022-12-18T13:46:51;29.27;;;17.07;;
1613;SDS011;800;48.824;9.346;2022-12-18T13:49:20;31.63;;;18.27;;
1613;SDS011;800;48.824;9.346;2022-12-18T13:52:16;28.03;;;16.20;;
1613;SDS011;800;48.824;9.346;2022-12-18T13:54:47;33.70;;;17.63;;
1613;SDS011;800;48.824;9.346;2022-12-18T13:57:29;29.27;;;17.97;;
1613;SDS011;800;48.824;9.346;2022-12-18T13:59:57;32.33;;;17.23;;
1613;SDS011;800;48.824;9.346;2022-12-18T14:02:24;33.57;;;17.67;;
1613;SDS011;800;48.824;9.346;2022-12-18T14:04:51;29.20;;;15.60;;
1613;SDS011;800;48.824;9.346;2022-12-18T14:07:21;30.23;;;16.90;;
1613;SDS011;800;48.824;9.346;2022-12-18T14:09:51;30.33;;;17.00;;
1613;SDS011;800;48.824;9.346;2022-12-18T14:12:20;37.37;;;19.63;;
1613;SDS011;800;48.824;9.346;2022-12-18T14:15:31;33.27;;;17.17;;
1613;SDS011;800;48.824;9.346;2022-12-18T14:18:03;30.80;;;16.57;;
1613;SDS011;800;48.824;9.346;2022-12-18T14:20:46;32.13;;;16.40;;
1613;SDS011;800;48.824;9.346;2022-12-18T14:25:55;11.00;;;7.60;;
1613;SDS011;800;48.824;9.346;2022-12-18T14:28:20;32.60;;;17.60;;
1613;SDS011;800;48.824;9.346;2022-12-18T14:30:50;28.40;;;16.90;;
1613;SDS011;800;48.824;9.346;2022-12-18T14:33:24;34.23;;;18.40;;
1613;SDS011;800;48.824;9.346;2022-12-18T14:35:56;31.27;;;18.37;;
1613;SDS011;800;48.824;9.346;2022-12-18T14:38:28;34.93;;;19.30;;
1613;SDS011;800;48.824;9.346;2022-12-18T14:41:15;32.63;;;18.40;;
1613;SDS011;800;48.824;9.346;2022-12-18T14:43:43;35.33;;;19.17;;
1613;SDS011;800;48.824;9.346;2022-12-18T14:46:52;39.10;;;18.30;;
1613;SDS011;800;48.824;9.346;2022-12-18T14:49:15;35.37;;;20.53;;
1613;SDS011;800;48.824;9.346;2022-12-18T14:51:49;32.50;;;18.40;;
1613;SDS011;800;48.824;9.346;2022-12-18T14:54:20;30.07;;;17.27;;
1613;SDS011;800;48.824;9.346;2022-12-18T14:56:51;34.90;;;18.93;;
1613;SDS011;800;48.824;9.346;2022-12-18T14:59:23;31.07;;;17.07;;
1613;SDS011;800;48.824;9.346;2022-12-18T15:02:10;32.20;;;18.67;;
1613;SDS011;800;48.824;9.346;2022-12-18T15:04:41;31.20;;;17.70;;
1613;SDS011;800;48.824;9.346;2022-12-18T15:10:00;32.00;;;18.23;;
1613;SDS011;800;48.824;9.346;2022-12-18T15:12:28;31.40;;;17.83;;
1613;SDS011;800;48.824;9.346;2022-12-18T15:15:00;28.73;;;17.33;;
1613;SDS011;800;48.824;9.346;2022-12-18T15:17:26;32.60;;;19.27;;
1613;SDS011;800;48.824;9.346;2022-12-18T15:19:53;40.97;;;20.13;;
1613;SDS011;800;48.824;9.346;2022-12-18T15:22:26;29.63;;;17.80;;
1613;SDS011;800;48.824;9.346;2022-12-18T15:24:54;36.97;;;19.67;;
1613;SDS011;800;48.824;9.346;2022-12-18T15:27:31;34.60;;;18.93;;
1613;SDS011;800;48.824;9.346;2022-12-18T15:32:35;35.37;;;19.10;;
1613;SDS011;800;48.824;9.346;2022-12-18T15:35:23;31.13;;;17.80;;
1613;SDS011;800;48.824;9.346;2022-12-18T15:37:49;31.43;;;17.80;;
1613;SDS011;800;48.824;9.346;2022-12-18T15:40:16;36.50;;;19.10;;
1613;SDS011;800;48.824;9.346;2022-12-18T15:42:46;37.87;;;19.60;;
1613;SDS011;800;48.824;9.346;2022-12-18T15:45:31;32.77;;;18.00;;
1613;SDS011;800;48.824;9.346;2022-12-18T15:47:58;37.83;;;19.53;;
1613;SDS011;800;48.824;9.346;2022-12-18T15:50:24;32.67;;;18.30;;
1613;SDS011;800;48.824;9.346;2022-12-18T15:52:50;31.37;;;16.57;;
1613;SDS011;800;48.824;9.346;2022-12-18T15:55:22;32.00;;;16.60;;
1613;SDS011;800;48.824;9.346;2022-12-18T15:58:08;33.67;;;18.50;;
1613;SDS011;800;48.824;9.346;2022-12-18T16:00:36;29.43;;;15.70;;
1613;SDS011;800;48.824;9.346;2022-12-18T16:03:04;35.40;;;17.13;;
1613;SDS011;800;48.824;9.346;2022-12-18T16:05:30;31.57;;;16.43;;
1613;SDS011;800;48.824;9.346;2022-12-18T16:07:56;35.50;;;17.90;;
1613;SDS011;800;48.824;9.346;2022-12-18T16:10:22;32.17;;;18.07;;
1613;SDS011;800;48.824;9.346;2022-12-18T16:12:49;32.13;;;16.70;;
1613;SDS011;800;48.824;9.346;2022-12-18T16:15:15;30.70;;;17.07;;
1613;SDS011;800;48.824;9.346;2022-12-18T16:17:46;39.87;;;19.10;;
1613;SDS011;800;48.824;9.346;2022-12-18T16:20:16;30.47;;;18.43;;
1613;SDS011;800;48.824;9.346;2022-12-18T16:22:44;33.93;;;16.97;;
1613;SDS011;800;48.824;9.346;2022-12-18T16:25:21;28.43;;;17.87;;
1613;SDS011;800;48.824;9.346;2022-12-18T16:27:49;37.20;;;17.37;;
1613;SDS011;800;48.824;9.346;2022-12-18T16:30:16;33.13;;;17.27;;
1613;SDS011;800;48.824;9.346;2022-12-18T16:32:44;34.27;;;17.00;;
1613;SDS011;800;48.824;9.346;2022-12-18T16:35:10;31.57;;;18.00;;
1613;SDS011;800;48.824;9.346;2022-12-18T16:37:37;33.30;;;19.60;;
1613;SDS011;800;48.824;9.346;2022-12-18T16:40:04;32.93;;;17.60;;
1613;SDS011;800;48.824;9.346;2022-12-18T16:42:31;36.73;;;17.63;;
1613;SDS011;800;48.824;9.346;2022-12-18T16:44:56;27.43;;;17.13;;
1613;SDS011;800;48.824;9.346;2022-12-18T16:47:22;31.97;;;17.67;;
1613;SDS011;800;48.824;9.346;2022-12-18T16:49:47;37.10;;;18.40;;
1613;SDS011;800;48.824;9.346;2022-12-18T16:52:16;41.37;;;16.93;;
1613;SDS011;800;48.824;9.346;2022-12-18T16:54:42;31.23;;;17.40;;
1613;SDS011;800;48.824;9.346;2022-12-18T16:57:08;35.70;;;18.80;;
1613;SDS011;800;48.824;9.346;2022-12-18T16:59:37;37.13;;;18.43;;